ENG ESP
Escola de Pilots
Telèfon 972234126 972 23 41 26
 
Aerbrava - meteorologia

Informació meteorològica aeronàutica

 

En aquest apartat apareix la informació meteorològica aeronàutica que és utilitzada a les pràctiques dels alumnes de l’Escola de Pilots del nostre centre durant la seva formació, pel que pot no ser actual i s’hauria d’utilitzar pel seu propi compte i risc. AERBRAVA no es fa responsable del seu ús.

 

TEMPS ACTUAL

Satèl·lit Meteorològic

sat24.com

Servei Meteorològic de Catalunya

 

LEGE 210230Z 00000KT 9999 FEW020 16/13 Q1015
LEGE 210200Z 10003KT 030V160 9999 FEW020 17/14 Q1015
LEGE 210130Z 20004KT 150V260 9999 FEW020 16/13 Q1015
LEGE 210100Z 18009KT 9999 FEW020 17/13 Q1015
LEGE 210030Z 21009KT 170V260 9999 FEW020 17/13 Q1015
LEGE 210000Z 20012KT 170V230 9999 FEW020 17/14 Q1015
LEGE 202330Z 22006KT 150V300 9999 FEW020 18/14 Q1016
LEGE 202300Z 19013KT 170V230 9999 FEW020 18/14 Q1016
TAF LEGE 202300Z 2100/2124 19009KT 9999 FEW030 TX24/2112Z TN13/2106Z   BECMG 2101/2103 VRB05KT   PROB40   TEMPO 2109/2118 SHRA BKN014 FEW040TCU   PROB40   TEMPO 2110/2112 18010KT   PROB40   TEMPO 2122/2124 SHRA BKN014 FEW040TCU

Aviation Weather

 
Aerbrava en el facebook Aerbrava en el twitter Aerbrava instagram Aerbrava en el youtube Aerbrava tumblr Aerbrava flikr Aerbrava pinterest

¡html Vàlid! ¡CSS Vàlid!